Station Historical Data
 
Daily Summary for April 23, 2019 Units:  Metric    English   Both
« Previous Day
Next Day »
Daily Weekly Monthly Yearly Custom
  Current: High: Low: Average:
Temperature: -10.8 °C -17.8 °C -11.3 °C -11.2 °C
Dew Point: -11.4 °C -17.8 °C -11.9 °C -11.8 °C
Humidity: 93 % Humidity % 77 % 92 %
Wind Speed: 57 km/h 0 km/h 9 km/h 26.7 km/h
Wind Gust: 34.4 km/h 0 km/h - -
Wind:East - - ENE
Pressure: 33941.3 hPa 0 hPa 33920.9 hPa -
Precipitation: 632.46 mm      
Historical Graphs
 
 
Tabular Data for April 23, 2019
Time Temperature Dew Point Pressure Wind Wind Speed Wind Gust Humidity Rainfall Rate (Hourly) solar Conditions
-17.8 °C -17.8 °C 0 hPa Calm     Humidity % 0 mm SolarRadiationWatts/m^2 W/m2 Conditions
00:03 -9.7 °C -11.9 °C 34066.5 hPa SE 38.8 km/h 29 km/h 77 % 0 mm 0.00 W/m2 BKN
00:08 -9.8 °C -11.9 °C 34066.5 hPa ESE 33.6 km/h 23 km/h 78 % 0 mm 0.00 W/m2 BKN
00:13 -9.8 °C -11.8 °C 34063.2 hPa East 29.8 km/h 20 km/h 79 % 0 mm 0.00 W/m2 BKN
00:18 -9.9 °C -11.8 °C 34063.2 hPa East 35.7 km/h 18.7 km/h 80 % 0 mm 0.00 W/m2 BKN
00:23 -10.1 °C -11.8 °C 34063.2 hPa ESE 35.7 km/h 23.3 km/h 82 % 0 mm 0.00 W/m2 BKN
00:29 -10.3 °C -11.8 °C 34059.8 hPa East 38.8 km/h 21.7 km/h 83 % 7.62 mm 0.00 W/m2 RA
00:33 -10.4 °C -11.8 °C 34059.8 hPa ESE 41.7 km/h 21.7 km/h 84 % 7.62 mm 0.00 W/m2 RA
00:38 -10.4 °C -11.7 °C 34059.8 hPa East 33.6 km/h 18.7 km/h 86 % 12.7 mm 0.00 W/m2 RA
00:44 -10.5 °C -11.7 °C 34056.4 hPa East 29.8 km/h 23.3 km/h 87 % 20.32 mm 0.00 W/m2 RA
00:48 -10.6 °C -11.8 °C 34056.4 hPa East 32.8 km/h 16.9 km/h 87 % 25.4 mm 0.00 W/m2 RA
00:53 -10.7 °C -11.8 °C 34056.4 hPa East 38.8 km/h 20.9 km/h 88 % 33.02 mm 0.00 W/m2 RA
00:59 -10.7 °C -11.7 °C 34049.6 hPa ENE 26.9 km/h 18.3 km/h 89 % 45.72 mm 0.00 W/m2 RA
01:04 -10.8 °C -11.8 °C 34049.6 hPa NE 33.6 km/h 22.2 km/h 89 % 50.8 mm 0.00 W/m2 RA
01:08 -10.8 °C -11.8 °C 34046.2 hPa ENE 35.7 km/h 20.9 km/h 89 % 50.8 mm 0.00 W/m2 RA
01:14 -10.8 °C -11.7 °C 34039.5 hPa NE 20.9 km/h 15.6 km/h 90 % 63.5 mm 0.00 W/m2 RA
01:19 -10.8 °C -11.7 °C 34036.1 hPa NE 28.5 km/h 13.5 km/h 90 % 71.12 mm 0.00 W/m2 RA
01:23 -10.9 °C -11.7 °C 34032.7 hPa ENE 20.8 km/h 10.6 km/h 91 % 76.2 mm 0.00 W/m2 RA
01:28 -10.9 °C -11.7 °C 34036.1 hPa East 26.9 km/h 12.7 km/h 91 % 83.82 mm 0.00 W/m2 RA
01:34 -10.9 °C -11.7 °C 34032.7 hPa NE 23.8 km/h 12.7 km/h 91 % 83.82 mm 0.00 W/m2 RA
01:39 -10.9 °C -11.7 °C 34032.7 hPa NE 23.3 km/h 14.5 km/h 91 % 83.82 mm 0.00 W/m2 RA
01:43 -10.9 °C -11.6 °C 34029.3 hPa ENE 26.9 km/h 14.5 km/h 92 % 83.82 mm 0.00 W/m2 RA
01:49 -10.9 °C -11.6 °C 34025.9 hPa ENE 26.9 km/h 16.6 km/h 92 % 83.82 mm 0.00 W/m2 RA
01:54 -10.9 °C -11.7 °C 34022.5 hPa ENE 17.9 km/h 11.4 km/h 92 % 83.82 mm 0.00 W/m2 RA
01:58 -10.9 °C -11.7 °C 34019.1 hPa NE 20.9 km/h 11.4 km/h 92 % 76.2 mm 0.00 W/m2 RA
02:04 -10.9 °C -11.7 °C 34019.1 hPa ENE 20.9 km/h 12.4 km/h 92 % 71.12 mm 0.00 W/m2 RA
02:09 -11 °C -11.7 °C 34015.8 hPa NNE 20.9 km/h 8.5 km/h 92 % 71.12 mm 0.00 W/m2 RA
02:13 -11 °C -11.7 °C 34015.8 hPa NE 23.3 km/h 10.9 km/h 92 % 76.2 mm 0.00 W/m2 RA
02:19 -11 °C -11.7 °C 34012.4 hPa ENE 18.2 km/h 7.6 km/h 92 % 71.12 mm 0.00 W/m2 RA
02:24 -11.1 °C -11.8 °C 34012.4 hPa ENE 18.2 km/h 7.2 km/h 92 % 71.12 mm 0.00 W/m2 RA
02:28 -11.1 °C -11.8 °C 34012.4 hPa NNE 20.9 km/h 10.9 km/h 92 % 71.12 mm 0.00 W/m2 RA
02:33 -11.1 °C -11.8 °C 34012.4 hPa ENE 18.2 km/h 11.4 km/h 92 % 83.82 mm 0.00 W/m2 RA
02:38 -11.2 °C -11.9 °C 34009 hPa NNE 18.2 km/h 10.1 km/h 92 % 76.2 mm 0.00 W/m2 RA
02:43 -11.2 °C -11.9 °C 34005.6 hPa NE 23.8 km/h 14 km/h 92 % 76.2 mm 0.00 W/m2 RA
02:49 -11.2 °C -11.8 °C 34005.6 hPa ENE 26.9 km/h 16.9 km/h 93 % 96.52 mm 0.00 W/m2 RA
02:53 -11.2 °C -11.8 °C 34002.2 hPa NE 29.8 km/h 15.3 km/h 93 % 104.14 mm 0.00 W/m2 RA
02:58 -11.2 °C -11.8 °C 33998.8 hPa East 20.9 km/h 11.9 km/h 93 % 104.14 mm 0.00 W/m2 RA
03:04 -11.2 °C -11.8 °C 33998.8 hPa ENE 23.8 km/h 16.3 km/h 93 % 104.14 mm 0.00 W/m2 RA
03:08 -11.2 °C -11.8 °C 33995.4 hPa ENE 18.2 km/h 11.4 km/h 93 % 116.84 mm 0.00 W/m2 RA
03:13 -11.3 °C -11.9 °C 33995.4 hPa NNE 20.8 km/h 12.7 km/h 93 % 109.22 mm 0.00 W/m2 RA
03:19 -11.3 °C -11.9 °C 33988.7 hPa East 26.9 km/h 17.5 km/h 93 % 109.22 mm 0.00 W/m2 RA
03:23 -11.3 °C -11.9 °C 33988.7 hPa East 18.2 km/h 10.3 km/h 93 % 116.84 mm 0.00 W/m2 RA
03:28 -11.3 °C -11.9 °C 33988.7 hPa NE 26.9 km/h 17.5 km/h 93 % 129.54 mm 0.00 W/m2 RA
03:34 -11.3 °C -11.9 °C 33985.3 hPa NE 31.1 km/h 19.5 km/h 93 % 147.32 mm 0.00 W/m2 RA
03:39 -11.3 °C -11.9 °C 33981.9 hPa ENE 29.8 km/h 19.5 km/h 93 % 154.94 mm 0.00 W/m2 RA
03:43 -11.3 °C -11.8 °C 33978.5 hPa ENE 29.8 km/h 14.2 km/h 94 % 160.02 mm 0.00 W/m2 RA
03:48 -11.3 °C -11.8 °C 33978.5 hPa NNE 26.9 km/h 12.2 km/h 94 % 160.02 mm 0.00 W/m2 RA
03:54 -11.3 °C -11.8 °C 33978.5 hPa NE 31.1 km/h 16.3 km/h 94 % 154.94 mm 0.00 W/m2 RA
03:58 -11.3 °C -11.8 °C 33975.1 hPa NNE 31.1 km/h 14.8 km/h 94 % 160.02 mm 0.00 W/m2 RA
04:03 -11.3 °C -11.9 °C 33975.1 hPa NE 29.8 km/h 12.7 km/h 94 % 154.94 mm 0.00 W/m2 RA
04:09 -11.3 °C -11.9 °C 33975.1 hPa NNW 26.9 km/h 15.3 km/h 94 % 147.32 mm 0.00 W/m2 RA
04:14 -11.3 °C -11.9 °C 33971.7 hPa East 26.9 km/h 10.9 km/h 94 % 147.32 mm 0.00 W/m2 RA
04:18 -11.3 °C -11.9 °C 33971.7 hPa NE 29.8 km/h 15.3 km/h 94 % 142.24 mm 0.00 W/m2 RA
04:24 -11.3 °C -11.8 °C 33968.4 hPa NNE 38.8 km/h 25.6 km/h 94 % 134.62 mm 0.00 W/m2 RA
04:29 -11.3 °C -11.8 °C 33965 hPa ENE 25.9 km/h 14 km/h 94 % 116.84 mm 0.00 W/m2 RA
04:33 -11.3 °C -11.8 °C 33961.6 hPa NNE 23.8 km/h 7.7 km/h 94 % 96.52 mm 0.00 W/m2 RA
04:39 -11.3 °C -11.8 °C 33961.6 hPa ENE 15 km/h 7.6 km/h 94 % 91.44 mm 0.00 W/m2 RA
04:44 -11.3 °C -11.8 °C 33954.8 hPa NE 36.2 km/h 15.3 km/h 94 % 76.2 mm 0.00 W/m2 RA
04:49 -11.3 °C -11.8 °C 33958.2 hPa ENE 26.9 km/h 12.7 km/h 94 % 71.12 mm 0.00 W/m2 RA
04:54 -11.3 °C -11.8 °C 33954.8 hPa NNE 18.2 km/h 10.3 km/h 94 % 83.82 mm 0.00 W/m2 RA
04:59 -11.3 °C -11.8 °C 33951.4 hPa ENE 26.9 km/h 14.8 km/h 94 % 76.2 mm 0.00 W/m2 RA
05:03 -11.3 °C -11.8 °C 33951.4 hPa NNE 31.1 km/h 20.9 km/h 94 % 91.44 mm 0.00 W/m2 RA
05:08 -11.3 °C -11.8 °C 33951.4 hPa NE 20.9 km/h 12.7 km/h 94 % 96.52 mm 0.00 W/m2 RA
05:13 -11.3 °C -11.8 °C 33951.4 hPa East 18.2 km/h 8.5 km/h 94 % 96.52 mm 0.00 W/m2 RA
05:18 -11.3 °C -11.8 °C 33948 hPa NE 23.3 km/h 8.9 km/h 94 % 104.14 mm 0.00 W/m2 RA
05:24 -11.3 °C -11.8 °C 33948 hPa ESE 18.2 km/h 10.1 km/h 94 % 109.22 mm 0.00 W/m2 RA
05:28 -11.3 °C -11.8 °C 33944.7 hPa ENE 9 km/h 4.3 km/h 94 % 116.84 mm 0.00 W/m2 RA
05:33 -11.3 °C -11.7 °C 33944.7 hPa NNE 9 km/h 5.1 km/h 95 % 121.92 mm 0.00 W/m2 RA
05:39 -11.3 °C -11.7 °C 33948 hPa NNE 15.6 km/h 9.8 km/h 95 % 129.54 mm 0.00 W/m2 RA
05:43 -11.3 °C -11.7 °C 33951.4 hPa NE 12.9 km/h 8.9 km/h 95 % 134.62 mm 0.00 W/m2 RA
05:48 -11.3 °C -11.7 °C 33948 hPa NE 23.3 km/h 12.7 km/h 95 % 134.62 mm 0.00 W/m2 RA
05:53 -11.3 °C -11.7 °C 33941.3 hPa NNE 15.6 km/h 8.5 km/h 95 % 129.54 mm 0.00 W/m2 RA
05:59 -11.3 °C -11.7 °C 33937.9 hPa East 18.2 km/h 11.6 km/h 95 % 129.54 mm 0.00 W/m2 RA
06:03 -11.3 °C -11.7 °C 33937.9 hPa NE 20.9 km/h 6.8 km/h 95 % 116.84 mm 0.00 W/m2 RA
06:09 -11.3 °C -11.7 °C 33934.5 hPa ENE 20.9 km/h 11.4 km/h 95 % 96.52 mm 0.00 W/m2 BKN
06:14 -11.3 °C -11.7 °C 33937.9 hPa NNE 17.9 km/h 12.2 km/h 95 % 96.52 mm 0.00 W/m2 RA
06:18 -11.3 °C -11.7 °C 33934.5 hPa ENE 25.9 km/h 20 km/h 95 % 96.52 mm 0.00 W/m2 RA
06:24 -11.3 °C -11.7 °C 33934.5 hPa NE 23.8 km/h 11.9 km/h 95 % 91.44 mm 0.00 W/m2 RA
06:29 -11.3 °C -11.8 °C 33934.5 hPa ENE 12.9 km/h 7.6 km/h 95 % 76.2 mm 0.00 W/m2 RA
06:33 -11.3 °C -11.8 °C 33934.5 hPa East 20.9 km/h 13.5 km/h 95 % 63.5 mm 0.00 W/m2 BKN
06:39 -11.3 °C -11.8 °C 33934.5 hPa NE 31.1 km/h 17.5 km/h 95 % 50.8 mm 0.00 W/m2 OVC
06:44 -11.3 °C -11.8 °C 33937.9 hPa ENE 31.1 km/h 19.6 km/h 95 % 38.1 mm 0.00 W/m2 OVC
06:49 -11.3 °C -11.8 °C 33934.5 hPa ENE 26.9 km/h 20.3 km/h 95 % 33.02 mm 0.00 W/m2 OVC
06:53 -11.3 °C -11.8 °C 33934.5 hPa East 32.8 km/h 20 km/h 95 % 33.02 mm 0.00 W/m2 RA
06:59 -11.3 °C -11.8 °C 33934.5 hPa NNE 25.9 km/h 12.9 km/h 95 % 20.32 mm 0.00 W/m2 RA
07:04 -11.3 °C -11.8 °C 33934.5 hPa NE 25.9 km/h 19.2 km/h 95 % 20.32 mm 5.00 W/m2
07:08 -11.3 °C -11.8 °C 33934.5 hPa East 28.5 km/h 18.8 km/h 95 % 20.32 mm 5.00 W/m2
07:14 -11.3 °C -11.8 °C 33934.5 hPa NE 26.9 km/h 16.3 km/h 95 % 20.32 mm 7.00 W/m2 RA
07:19 -11.3 °C -11.8 °C 33934.5 hPa ENE 20.9 km/h 16.3 km/h 95 % 20.32 mm 9.00 W/m2 RA
07:23 -11.3 °C -11.8 °C 33931.1 hPa NE 26.9 km/h 17.1 km/h 95 % 12.7 mm 12.00 W/m2 RA
07:29 -11.3 °C -11.8 °C 33931.1 hPa ENE 23.3 km/h 9.8 km/h 95 % 12.7 mm 11.00 W/m2
07:34 -11.3 °C -11.8 °C 33931.1 hPa NE 26.9 km/h 15 km/h 95 % 12.7 mm 12.00 W/m2 OVC
07:38 -11.3 °C -11.7 °C 33931.1 hPa ENE 29.8 km/h 16.1 km/h 95 % 12.7 mm 12.00 W/m2 OVC
07:43 -11.3 °C -11.7 °C 33931.1 hPa ENE 20.9 km/h 13.5 km/h 95 % 20.32 mm 18.00 W/m2 RA
07:48 -11.3 °C -11.7 °C 33934.5 hPa East 33.6 km/h 21.6 km/h 95 % 20.32 mm 28.00 W/m2 RA
07:53 -11.3 °C -11.7 °C 33927.7 hPa NE 28.5 km/h 15 km/h 95 % 12.7 mm 30.00 W/m2 BKN
07:59 -11.3 °C -11.7 °C 33927.7 hPa ENE 29.8 km/h 20 km/h 95 % 20.32 mm 33.00 W/m2 RA
08:03 -11.3 °C -11.7 °C 33927.7 hPa East 26.9 km/h 16.1 km/h 95 % 20.32 mm 33.00 W/m2 RA
08:08 -11.2 °C -11.7 °C 33924.3 hPa NE 33.6 km/h 18.3 km/h 95 % 20.32 mm 42.00 W/m2 RA
08:14 -11.2 °C -11.7 °C 33924.3 hPa East 36.2 km/h 24.3 km/h 95 % 12.7 mm 44.00 W/m2 BKN
08:18 -11.2 °C -11.7 °C 33920.9 hPa East 35.7 km/h 16.3 km/h 95 % 12.7 mm 42.00 W/m2 BKN
08:23 -11.2 °C -11.7 °C 33920.9 hPa East 31.1 km/h 22.2 km/h 95 % 12.7 mm 51.00 W/m2 BKN
08:29 -11.2 °C -11.7 °C 33920.9 hPa ENE 23.8 km/h 16.1 km/h 95 % 12.7 mm 42.00 W/m2 BKN
08:33 -11.2 °C -11.6 °C 33920.9 hPa ENE 38.8 km/h 25.9 km/h 95 % 20.32 mm 44.00 W/m2 RA
08:38 -11.2 °C -11.6 °C 33920.9 hPa NE 23.8 km/h 7.6 km/h 95 % 20.32 mm 51.00 W/m2 RA
08:44 -11.2 °C -11.6 °C 33920.9 hPa ESE 29.8 km/h 17.4 km/h 95 % 12.7 mm 47.00 W/m2 BKN
08:49 -11.2 °C -11.6 °C 33920.9 hPa East 29.8 km/h 19.5 km/h 95 % 12.7 mm 49.00 W/m2 BKN
08:53 -11.2 °C -11.6 °C 33924.3 hPa East 25.9 km/h 15.3 km/h 95 % 12.7 mm 56.00 W/m2 BKN
08:59 -11.1 °C -11.6 °C 33924.3 hPa ENE 29.8 km/h 24.3 km/h 95 % 7.62 mm 51.00 W/m2 BKN
09:04 -11.1 °C -11.5 °C 33927.7 hPa NE 31.1 km/h 18.8 km/h 95 % 7.62 mm 42.00 W/m2 BKN
09:08 -11.1 °C -11.5 °C 33920.9 hPa ENE 28.5 km/h 18.2 km/h 95 % 7.62 mm 53.00 W/m2 BKN
09:14 -11.1 °C -11.6 °C 33927.7 hPa ENE 35.7 km/h 27.2 km/h 94 % 7.62 mm 51.00 W/m2 BKN
09:19 -11 °C -11.6 °C 33927.7 hPa NE 33.6 km/h 16.3 km/h 94 % 7.62 mm 46.00 W/m2 BKN
09:23 -11 °C -11.5 °C 33927.7 hPa NE 29.8 km/h 12.2 km/h 94 % 7.62 mm 72.00 W/m2 BKN
09:29 -11 °C -11.5 °C 33927.7 hPa ENE 36.2 km/h 22.9 km/h 94 % 7.62 mm 54.00 W/m2 BKN
09:34 -10.9 °C -11.5 °C 33927.7 hPa ENE 23.8 km/h 16.9 km/h 94 % 0 mm 58.00 W/m2 BKN
09:39 -10.9 °C -11.5 °C 33927.7 hPa ENE 31.1 km/h 20 km/h 94 % 0 mm 74.00 W/m2 BKN
09:44 -10.9 °C -11.5 °C 33927.7 hPa ENE 44.7 km/h 20.9 km/h 94 % 0 mm 81.00 W/m2 BKN
09:49 -10.9 °C -11.4 °C 33937.9 hPa ENE 26.9 km/h 16.6 km/h 94 % 0 mm 79.00 W/m2 BKN
09:54 -10.9 °C -11.5 °C 33937.9 hPa ENE 28.5 km/h 19.5 km/h 93 % 0 mm 69.00 W/m2 BKN
09:58 -10.9 °C -11.5 °C 33937.9 hPa ENE 29.8 km/h 18.2 km/h 93 % 0 mm 77.00 W/m2 BKN
10:04 -10.8 °C -11.4 °C 33937.9 hPa East 29.8 km/h 16.3 km/h 93 % 0 mm 74.00 W/m2 BKN
10:08 -10.8 °C -11.4 °C 33937.9 hPa East 35.7 km/h 15.3 km/h 93 % 0 mm 60.00 W/m2 BKN
10:14 -10.8 °C -11.4 °C 33941.3 hPa East 57 km/h 34.4 km/h 93 % 0 mm 69.00 W/m2 BKN
Juneau County Weather
Compliments of Weather Underground - 2.5 mb